createdAt,value
2018-07-15T00:01:16.187Z,18.12
2018-07-15T00:03:44.348Z,18.10
2018-07-15T00:06:12.611Z,18.07
2018-07-15T00:08:40.814Z,18.07
2018-07-15T00:11:08.985Z,18.04
2018-07-15T00:13:37.170Z,18.05
2018-07-15T00:16:05.362Z,18.11
2018-07-15T00:18:33.562Z,18.21
2018-07-15T00:21:01.800Z,18.27
2018-07-15T00:23:29.976Z,18.37
2018-07-15T00:25:58.141Z,18.55
2018-07-15T00:28:26.354Z,18.62
2018-07-15T00:30:54.574Z,18.77
2018-07-15T00:33:22.770Z,18.81
2018-07-15T00:35:50.966Z,18.85
2018-07-15T00:38:19.166Z,18.77
2018-07-15T00:40:47.355Z,18.73
2018-07-15T00:43:15.573Z,18.65
2018-07-15T00:45:43.753Z,18.69
2018-07-15T00:48:11.945Z,18.55
2018-07-15T00:50:40.112Z,18.45
2018-07-15T00:53:08.305Z,18.32
2018-07-15T00:55:36.475Z,18.21
2018-07-15T00:58:04.748Z,18.16
2018-07-15T01:00:38.253Z,18.15
2018-07-15T01:03:06.435Z,18.04
2018-07-15T01:05:34.607Z,17.93
2018-07-15T01:08:02.787Z,17.90
2018-07-15T01:10:31.300Z,17.87
2018-07-15T01:12:59.472Z,17.87
2018-07-15T01:15:27.648Z,17.82
2018-07-15T01:17:55.814Z,17.80
2018-07-15T01:20:24.013Z,17.80
2018-07-15T01:22:52.463Z,17.80
2018-07-15T01:25:20.620Z,17.77
2018-07-15T01:27:48.792Z,17.76
2018-07-15T01:30:16.975Z,17.57
2018-07-15T01:32:45.218Z,17.49
2018-07-15T01:35:13.388Z,17.43
2018-07-15T01:37:41.569Z,17.52
2018-07-15T01:40:09.734Z,17.55
2018-07-15T01:42:37.984Z,17.54
2018-07-15T01:45:06.209Z,17.51
2018-07-15T01:47:34.386Z,17.49
2018-07-15T01:50:02.563Z,17.44
2018-07-15T01:52:30.742Z,17.39
2018-07-15T01:54:58.914Z,17.35
2018-07-15T01:57:27.089Z,17.26
2018-07-15T01:59:55.274Z,17.31
2018-07-15T02:02:23.516Z,17.30
2018-07-15T02:04:51.690Z,17.23
2018-07-15T02:07:19.866Z,17.24
2018-07-15T02:09:48.038Z,17.19
2018-07-15T02:12:16.207Z,17.15
2018-07-15T02:14:44.452Z,17.10
2018-07-15T02:17:12.857Z,17.12
2018-07-15T02:19:41.066Z,17.11
2018-07-15T02:22:09.637Z,17.12
2018-07-15T02:24:37.881Z,17.14
2018-07-15T02:27:06.093Z,17.11
2018-07-15T02:29:34.317Z,17.10
2018-07-15T02:32:02.691Z,17.13
2018-07-15T02:34:30.974Z,17.07
2018-07-15T02:36:59.156Z,17.06
2018-07-15T02:39:27.327Z,17.05
2018-07-15T02:41:55.490Z,17.10
2018-07-15T02:44:23.828Z,17.07
2018-07-15T02:46:51.986Z,17.04
2018-07-15T02:49:20.176Z,17.00
2018-07-15T02:51:48.354Z,16.96
2018-07-15T02:54:16.565Z,16.92
2018-07-15T02:56:44.730Z,16.89
2018-07-15T02:59:12.947Z,16.85
2018-07-15T03:01:41.112Z,16.83
2018-07-15T03:04:09.331Z,16.79
2018-07-15T03:06:39.195Z,16.77
2018-07-15T03:09:09.557Z,16.78
2018-07-15T03:11:37.742Z,16.75
2018-07-15T03:14:06.166Z,16.73
2018-07-15T03:16:34.521Z,16.74
2018-07-15T03:19:03.065Z,16.70
2018-07-15T03:21:31.359Z,16.72
2018-07-15T03:23:59.536Z,16.69
2018-07-15T03:26:27.696Z,16.62
2018-07-15T03:28:55.869Z,16.57
2018-07-15T03:31:24.027Z,16.45
2018-07-15T03:33:52.195Z,16.49
2018-07-15T03:36:20.409Z,16.57
2018-07-15T03:38:48.600Z,16.59
2018-07-15T03:41:16.779Z,16.52
2018-07-15T03:43:44.962Z,16.50
2018-07-15T03:46:13.126Z,16.45
2018-07-15T03:48:41.298Z,16.46
2018-07-15T03:51:09.474Z,16.40
2018-07-15T03:53:44.372Z,16.51
2018-07-15T03:56:12.574Z,16.63
2018-07-15T03:58:40.746Z,16.67
2018-07-15T04:01:08.946Z,16.63
2018-07-15T04:03:37.403Z,16.56
2018-07-15T04:06:05.578Z,16.78
2018-07-15T04:08:33.763Z,16.89
2018-07-15T04:11:01.922Z,17.03
2018-07-15T04:13:36.705Z,17.13
2018-07-15T04:16:04.925Z,17.27
2018-07-15T04:18:33.103Z,17.33
2018-07-15T04:21:01.276Z,17.41
2018-07-15T04:23:29.459Z,17.57
2018-07-15T04:25:57.633Z,17.62
2018-07-15T04:28:25.805Z,17.76
2018-07-15T04:30:54.011Z,17.89
2018-07-15T04:33:22.172Z,18.07
2018-07-15T04:35:50.354Z,18.26
2018-07-15T04:38:18.575Z,18.49
2018-07-15T04:40:47.183Z,18.71
2018-07-15T04:43:15.384Z,18.80
2018-07-15T04:45:43.574Z,18.88
2018-07-15T04:48:11.816Z,19.04
2018-07-15T04:50:40.000Z,19.20
2018-07-15T04:53:08.197Z,19.26
2018-07-15T04:55:36.734Z,19.27
2018-07-15T04:58:04.948Z,19.31
2018-07-15T05:00:33.450Z,19.30
2018-07-15T05:03:01.942Z,19.39
2018-07-15T05:05:30.126Z,19.51
2018-07-15T05:07:58.310Z,19.51
2018-07-15T05:10:26.489Z,19.42
2018-07-15T05:12:54.661Z,19.63
2018-07-15T05:15:22.863Z,19.74
2018-07-15T05:17:51.037Z,19.88
2018-07-15T05:20:19.209Z,19.97
2018-07-15T05:22:47.433Z,20.03
2018-07-15T05:25:15.624Z,20.09
2018-07-15T05:27:43.801Z,20.11
2018-07-15T05:30:12.092Z,20.18
2018-07-15T05:32:40.317Z,20.04
2018-07-15T05:35:08.731Z,20.15
2018-07-15T05:37:36.977Z,20.33
2018-07-15T05:40:05.158Z,20.52
2018-07-15T05:42:33.474Z,20.59
2018-07-15T05:45:01.708Z,20.69
2018-07-15T05:47:29.887Z,20.65
2018-07-15T05:49:58.090Z,20.73
2018-07-15T05:52:26.309Z,20.71
2018-07-15T05:54:54.572Z,20.68
2018-07-15T05:57:22.908Z,20.83
2018-07-15T05:59:51.100Z,20.83
2018-07-15T06:02:19.303Z,20.98
2018-07-15T06:04:47.498Z,21.00
2018-07-15T06:07:15.690Z,21.13
2018-07-15T06:09:43.861Z,21.27
2018-07-15T06:12:12.040Z,21.12
2018-07-15T06:14:40.234Z,21.17
2018-07-15T06:17:08.701Z,21.32
2018-07-15T06:19:36.870Z,21.45
2018-07-15T06:22:05.042Z,21.53
2018-07-15T06:24:33.238Z,21.73
2018-07-15T06:27:01.519Z,21.96
2018-07-15T06:29:29.690Z,22.03
2018-07-15T06:31:57.941Z,22.13
2018-07-15T06:34:26.019Z,22.36
2018-07-15T06:36:54.281Z,22.09
2018-07-15T06:39:22.453Z,22.26
2018-07-15T06:41:50.658Z,22.40
2018-07-15T06:44:18.878Z,22.50
2018-07-15T06:46:47.063Z,22.65
2018-07-15T06:49:15.229Z,22.64
2018-07-15T06:51:43.421Z,22.83
2018-07-15T06:54:11.603Z,23.12
2018-07-15T06:56:40.102Z,23.24
2018-07-15T06:59:08.286Z,23.40
2018-07-15T07:01:36.756Z,23.44
2018-07-15T07:04:05.263Z,23.59
2018-07-15T07:06:34.333Z,23.70
2018-07-15T07:09:03.048Z,23.91
2018-07-15T07:11:31.618Z,23.89
2018-07-15T07:13:59.785Z,24.02
2018-07-15T07:16:28.289Z,24.06
2018-07-15T07:18:56.442Z,24.14
2018-07-15T07:21:24.631Z,24.35
2018-07-15T07:23:53.401Z,24.51
2018-07-15T07:26:21.913Z,24.51
2018-07-15T07:28:50.278Z,24.76
2018-07-15T07:31:18.385Z,24.96
2018-07-15T07:33:46.665Z,25.00
2018-07-15T07:36:14.915Z,25.30
2018-07-15T07:38:43.141Z,25.30
2018-07-15T07:41:11.531Z,25.40
2018-07-15T07:43:39.877Z,25.39
2018-07-15T07:46:08.050Z,25.16
2018-07-15T07:48:36.635Z,25.51
2018-07-15T07:51:05.066Z,25.53
2018-07-15T07:53:33.235Z,25.83
2018-07-15T07:56:01.561Z,25.81
2018-07-15T07:58:29.763Z,25.66
2018-07-15T08:00:57.940Z,26.01
2018-07-15T08:03:26.294Z,26.15
2018-07-15T08:05:54.569Z,26.21
2018-07-15T08:08:22.751Z,26.04
2018-07-15T08:10:50.917Z,26.22
2018-07-15T08:13:19.550Z,26.27
2018-07-15T08:15:48.181Z,26.18
2018-07-15T08:18:17.496Z,26.61
2018-07-15T08:20:45.668Z,26.78
2018-07-15T08:23:13.887Z,26.89
2018-07-15T08:25:42.249Z,26.89
2018-07-15T08:28:10.575Z,27.06
2018-07-15T08:30:50.097Z,26.87
2018-07-15T08:33:18.279Z,26.86
2018-07-15T08:35:46.469Z,27.08
2018-07-15T08:38:14.742Z,27.36
2018-07-15T08:40:43.361Z,27.51
2018-07-15T08:43:11.805Z,27.64
2018-07-15T08:45:40.053Z,27.71
2018-07-15T08:48:08.592Z,27.62
2018-07-15T08:50:38.296Z,27.99
2018-07-15T08:53:10.223Z,28.16
2018-07-15T08:55:41.643Z,28.00
2018-07-15T08:58:11.047Z,28.13
2018-07-15T09:00:39.310Z,28.51
2018-07-15T09:03:07.503Z,28.17
2018-07-15T09:05:35.676Z,27.82
2018-07-15T09:08:03.838Z,28.48
2018-07-15T09:10:35.844Z,27.94
2018-07-15T09:13:06.923Z,28.64
2018-07-15T09:15:35.122Z,28.67
2018-07-15T09:18:03.319Z,28.67
2018-07-15T09:20:31.499Z,28.71
2018-07-15T09:22:59.704Z,29.07
2018-07-15T09:25:27.870Z,28.91
2018-07-15T09:27:56.097Z,28.74
2018-07-15T09:30:24.366Z,28.66
2018-07-15T09:32:52.552Z,28.58
2018-07-15T09:35:20.750Z,28.72
2018-07-15T09:37:49.394Z,28.96
2018-07-15T09:40:17.850Z,29.64
2018-07-15T09:42:46.031Z,29.46
2018-07-15T09:45:14.234Z,29.97
2018-07-15T09:47:42.439Z,30.21
2018-07-15T09:50:10.613Z,30.28
2018-07-15T09:52:38.967Z,30.18
2018-07-15T09:55:07.425Z,29.69
2018-07-15T09:57:35.614Z,30.09
2018-07-15T10:00:05.311Z,30.02
2018-07-15T10:02:38.189Z,30.29
2018-07-15T10:05:06.401Z,30.43
2018-07-15T10:07:34.589Z,30.22
2018-07-15T10:10:02.825Z,30.14
2018-07-15T10:12:31.021Z,29.53
2018-07-15T10:14:59.237Z,29.85
2018-07-15T10:17:27.481Z,30.27
2018-07-15T10:19:55.715Z,31.08
2018-07-15T10:22:23.902Z,31.58
2018-07-15T10:24:52.290Z,31.87
2018-07-15T10:27:20.814Z,32.27
2018-07-15T10:29:49.006Z,32.73
2018-07-15T10:32:17.201Z,32.74
2018-07-15T10:34:45.430Z,32.81
2018-07-15T10:37:13.762Z,32.92
2018-07-15T10:39:41.950Z,33.03
2018-07-15T10:42:10.156Z,32.70
2018-07-15T10:44:38.421Z,32.09
2018-07-15T10:47:06.715Z,33.28
2018-07-15T10:49:35.129Z,33.24
2018-07-15T10:52:03.357Z,33.02
2018-07-15T10:54:31.585Z,32.78
2018-07-15T10:56:59.963Z,33.08
2018-07-15T10:59:28.161Z,33.37
2018-07-15T11:01:56.453Z,33.58
2018-07-15T11:04:24.645Z,34.65
2018-07-15T11:06:52.941Z,34.46
2018-07-15T11:09:21.102Z,33.58
2018-07-15T11:11:49.298Z,33.66
2018-07-15T11:14:17.540Z,34.32
2018-07-15T11:16:45.816Z,32.73
2018-07-15T11:19:14.102Z,33.16
2018-07-15T11:21:42.367Z,32.54
2018-07-15T11:24:10.651Z,32.91
2018-07-15T11:26:38.864Z,37.15
2018-07-15T11:29:07.035Z,38.67
2018-07-15T11:31:35.215Z,36.53
2018-07-15T11:34:03.397Z,35.92
2018-07-15T11:36:31.577Z,40.64
2018-07-15T11:38:59.911Z,43.20
2018-07-15T11:41:28.062Z,45.69
2018-07-15T11:43:56.350Z,48.31
2018-07-15T11:46:24.517Z,46.44
2018-07-15T11:48:52.761Z,48.53
2018-07-15T11:51:20.925Z,51.46
2018-07-15T11:53:49.109Z,49.97
2018-07-15T11:56:17.621Z,50.41
2018-07-15T11:58:45.798Z,49.70
2018-07-15T12:01:13.962Z,49.97
2018-07-15T12:03:42.132Z,50.89
2018-07-15T12:06:10.562Z,46.29
2018-07-15T12:08:38.723Z,42.45
2018-07-15T12:11:07.135Z,41.18
2018-07-15T12:13:35.240Z,41.07
2018-07-15T12:16:03.494Z,40.25
2018-07-15T12:18:31.740Z,38.66
2018-07-15T12:20:59.909Z,41.44
2018-07-15T12:23:28.076Z,37.08
2018-07-15T12:25:56.246Z,36.93
2018-07-15T12:28:24.507Z,37.36
2018-07-15T12:30:52.684Z,43.72
2018-07-15T12:33:21.095Z,42.52
2018-07-15T12:35:49.668Z,46.27
2018-07-15T12:38:17.966Z,42.46
2018-07-15T12:40:46.153Z,39.13
2018-07-15T12:43:14.365Z,36.81
2018-07-15T12:45:42.558Z,33.28
2018-07-15T12:48:11.030Z,31.90
2018-07-15T12:50:39.217Z,30.80
2018-07-15T12:53:07.696Z,30.18
2018-07-15T12:55:36.192Z,30.02
2018-07-15T12:58:04.394Z,29.24
2018-07-15T13:00:32.686Z,27.84
2018-07-15T13:03:00.965Z,27.27
2018-07-15T13:05:29.197Z,25.79
2018-07-15T13:07:57.398Z,23.27
2018-07-15T13:10:25.938Z,22.10
2018-07-15T13:12:54.137Z,22.15
2018-07-15T13:15:22.317Z,22.19
2018-07-15T13:17:50.515Z,21.19
2018-07-15T13:20:19.017Z,21.61
2018-07-15T13:22:47.262Z,21.61
2018-07-15T13:25:15.459Z,21.70
2018-07-15T13:27:43.640Z,21.16
2018-07-15T13:30:11.880Z,21.12
2018-07-15T13:32:40.083Z,21.21
2018-07-15T13:35:08.259Z,21.19
2018-07-15T13:37:36.478Z,21.15
2018-07-15T13:40:04.717Z,21.49
2018-07-15T13:42:32.970Z,21.36
2018-07-15T13:45:01.185Z,21.18
2018-07-15T13:47:29.423Z,21.07
2018-07-15T13:49:57.861Z,21.05
2018-07-15T13:52:26.048Z,20.99
2018-07-15T13:54:54.317Z,21.12
2018-07-15T13:57:22.541Z,21.02
2018-07-15T13:59:50.713Z,21.04
2018-07-15T14:02:18.925Z,21.23
2018-07-15T14:04:47.370Z,21.24
2018-07-15T14:07:15.553Z,21.29
2018-07-15T14:09:43.826Z,21.42
2018-07-15T14:12:12.078Z,21.44
2018-07-15T14:14:40.593Z,21.71
2018-07-15T14:17:08.779Z,22.17
2018-07-15T14:19:37.023Z,22.43
2018-07-15T14:22:05.220Z,22.54
2018-07-15T14:24:33.505Z,22.56
2018-07-15T14:27:01.720Z,22.44
2018-07-15T14:29:29.997Z,22.12
2018-07-15T14:31:58.182Z,22.43
2018-07-15T14:34:26.554Z,22.58
2018-07-15T14:36:55.110Z,22.82
2018-07-15T14:39:31.684Z,22.79
2018-07-15T14:41:59.848Z,22.97
2018-07-15T14:44:28.014Z,23.03
2018-07-15T14:46:56.441Z,22.89
2018-07-15T14:49:25.122Z,22.71
2018-07-15T14:51:53.506Z,22.26
2018-07-15T14:54:21.702Z,22.23
2018-07-15T14:56:49.892Z,22.42
2018-07-15T14:59:18.098Z,22.43
2018-07-15T15:01:46.336Z,22.49
2018-07-15T15:04:14.786Z,22.52
2018-07-15T15:06:43.045Z,22.44
2018-07-15T15:09:11.262Z,22.05
2018-07-15T15:11:39.521Z,22.38
2018-07-15T15:14:07.698Z,22.39
2018-07-15T15:16:35.914Z,22.42
2018-07-15T15:19:04.090Z,22.55
2018-07-15T15:21:32.541Z,22.60
2018-07-15T15:24:00.802Z,22.54
2018-07-15T15:26:29.224Z,22.55
2018-07-15T15:28:57.412Z,22.56
2018-07-15T15:31:25.609Z,22.52
2018-07-15T15:33:53.828Z,22.45
2018-07-15T15:36:22.028Z,22.58
2018-07-15T15:38:50.281Z,22.63
2018-07-15T15:41:18.757Z,22.74
2018-07-15T15:43:47.253Z,22.75
2018-07-15T15:46:15.459Z,22.85
2018-07-15T15:48:43.619Z,23.00
2018-07-15T15:51:12.109Z,23.26
2018-07-15T15:53:40.295Z,23.61
2018-07-15T15:56:08.516Z,23.72
2018-07-15T15:58:36.708Z,24.12
2018-07-15T16:01:05.335Z,24.33
2018-07-15T16:03:33.698Z,24.23
2018-07-15T16:06:02.242Z,24.54
2018-07-15T16:08:31.047Z,24.91
2018-07-15T16:10:59.722Z,25.07
2018-07-15T16:13:28.084Z,25.21
2018-07-15T16:15:56.418Z,24.91
2018-07-15T16:18:24.710Z,25.37
2018-07-15T16:20:52.930Z,25.19
2018-07-15T16:23:21.153Z,26.15
2018-07-15T16:25:49.369Z,26.47
2018-07-15T16:28:17.602Z,26.63
2018-07-15T16:30:45.815Z,26.82
2018-07-15T16:33:14.112Z,26.70
2018-07-15T16:35:42.314Z,26.72
2018-07-15T16:38:10.523Z,26.82
2018-07-15T16:40:38.785Z,27.13
2018-07-15T16:43:07.064Z,27.28
2018-07-15T16:45:35.251Z,27.03
2018-07-15T16:48:03.517Z,26.97
2018-07-15T16:50:32.743Z,26.56
2018-07-15T16:53:03.202Z,26.94
2018-07-15T16:55:32.553Z,27.05
2018-07-15T16:58:01.879Z,26.68
2018-07-15T17:00:31.104Z,26.05
2018-07-15T17:02:59.353Z,26.20
2018-07-15T17:05:27.531Z,25.78
2018-07-15T17:07:56.028Z,25.44
2018-07-15T17:10:24.234Z,25.52
2018-07-15T17:12:52.407Z,25.24
2018-07-15T17:15:20.633Z,24.92
2018-07-15T17:17:49.614Z,24.38
2018-07-15T17:20:17.848Z,24.47
2018-07-15T17:22:46.038Z,24.59
2018-07-15T17:25:14.253Z,24.45
2018-07-15T17:27:42.545Z,24.31
2018-07-15T17:30:11.064Z,24.46
2018-07-15T17:32:39.308Z,24.41
2018-07-15T17:35:07.745Z,24.29
2018-07-15T17:37:36.147Z,24.13
2018-07-15T17:40:04.351Z,24.33
2018-07-15T17:42:32.581Z,24.33
2018-07-15T17:45:00.908Z,24.14
2018-07-15T17:47:29.323Z,24.18
2018-07-15T17:49:57.631Z,24.32
2018-07-15T17:52:25.794Z,24.26
2018-07-15T17:54:54.090Z,24.37
2018-07-15T17:57:22.300Z,24.37
2018-07-15T17:59:50.490Z,24.13
2018-07-15T18:02:18.879Z,24.10
2018-07-15T18:04:47.120Z,23.85
2018-07-15T18:07:15.244Z,23.87
2018-07-15T18:09:43.548Z,23.70
2018-07-15T18:12:11.840Z,23.40
2018-07-15T18:14:40.151Z,23.42
2018-07-15T18:17:08.316Z,23.34
2018-07-15T18:19:36.550Z,23.38
2018-07-15T18:22:04.863Z,23.18
2018-07-15T18:24:33.255Z,23.17
2018-07-15T18:27:01.549Z,23.20
2018-07-15T18:29:29.780Z,23.00
2018-07-15T18:31:58.636Z,22.87
2018-07-15T18:34:26.985Z,22.87
2018-07-15T18:36:55.241Z,22.93
2018-07-15T18:39:24.428Z,23.02
2018-07-15T18:41:52.672Z,22.88
2018-07-15T18:44:21.245Z,22.80
2018-07-15T18:46:49.492Z,22.62
2018-07-15T18:49:17.765Z,22.54
2018-07-15T18:51:46.038Z,22.45
2018-07-15T18:54:14.339Z,22.42
2018-07-15T18:56:42.553Z,22.39
2018-07-15T18:59:10.962Z,22.32
2018-07-15T19:01:39.116Z,22.23
2018-07-15T19:04:07.690Z,22.10
2018-07-15T19:06:37.249Z,22.11
2018-07-15T19:09:06.902Z,21.94
2018-07-15T19:11:35.115Z,21.88
2018-07-15T19:14:03.514Z,21.81
2018-07-15T19:16:31.726Z,21.69
2018-07-15T19:19:00.324Z,21.74
2018-07-15T19:21:28.594Z,21.68
2018-07-15T19:23:56.786Z,21.60
2018-07-15T19:26:24.990Z,21.47
2018-07-15T19:28:53.221Z,21.43
2018-07-15T19:31:21.421Z,21.45
2018-07-15T19:33:50.179Z,21.34
2018-07-15T19:36:18.481Z,21.18
2018-07-15T19:38:46.705Z,21.04
2018-07-15T19:41:15.704Z,21.09
2018-07-15T19:43:43.959Z,20.99
2018-07-15T19:46:12.279Z,21.01
2018-07-15T19:48:40.464Z,20.88
2018-07-15T19:51:08.701Z,20.84
2018-07-15T19:53:36.923Z,20.78
2018-07-15T19:56:05.513Z,20.70
2018-07-15T19:58:33.709Z,20.63
2018-07-15T20:01:02.020Z,20.49
2018-07-15T20:03:30.184Z,20.43
2018-07-15T20:05:59.027Z,20.36
2018-07-15T20:08:27.273Z,20.27
2018-07-15T20:10:55.783Z,20.22
2018-07-15T20:13:24.359Z,20.14
2018-07-15T20:15:52.577Z,20.07
2018-07-15T20:18:20.917Z,20.00
2018-07-15T20:20:49.313Z,19.97
2018-07-15T20:23:17.521Z,19.84
2018-07-15T20:25:45.730Z,19.84
2018-07-15T20:28:14.148Z,19.76
2018-07-15T20:30:42.459Z,19.58
2018-07-15T20:33:10.697Z,19.46
2018-07-15T20:35:38.930Z,19.31
2018-07-15T20:38:07.592Z,19.36
2018-07-15T20:40:36.026Z,19.34
2018-07-15T20:43:04.350Z,19.27
2018-07-15T20:45:32.950Z,19.12
2018-07-15T20:48:01.150Z,19.15
2018-07-15T20:50:29.508Z,19.14
2018-07-15T20:52:57.666Z,18.94
2018-07-15T20:55:25.954Z,18.87
2018-07-15T20:57:54.324Z,18.92
2018-07-15T21:00:22.536Z,19.02
2018-07-15T21:02:51.512Z,18.91
2018-07-15T21:05:19.754Z,18.87
2018-07-15T21:07:48.052Z,18.87
2018-07-15T21:10:16.293Z,18.78
2018-07-15T21:12:44.533Z,18.61
2018-07-15T21:15:12.717Z,18.62
2018-07-15T21:17:40.922Z,18.59
2018-07-15T21:20:09.377Z,18.53
2018-07-15T21:22:37.553Z,18.50
2018-07-15T21:25:05.776Z,18.39
2018-07-15T21:27:33.999Z,18.26
2018-07-15T21:30:02.269Z,18.31
2018-07-15T21:32:30.478Z,18.34
2018-07-15T21:34:58.710Z,18.30
2018-07-15T21:37:26.906Z,18.28
2018-07-15T21:39:55.110Z,18.24
2018-07-15T21:42:23.990Z,18.20
2018-07-15T21:44:52.214Z,18.17
2018-07-15T21:47:20.490Z,18.15
2018-07-15T21:49:48.746Z,18.10
2018-07-15T21:52:16.966Z,18.15
2018-07-15T21:54:45.143Z,18.15
2018-07-15T21:57:13.357Z,18.11
2018-07-15T21:59:41.541Z,18.03
2018-07-15T22:02:09.738Z,18.02
2018-07-15T22:04:37.968Z,17.98
2018-07-15T22:07:17.719Z,17.94
2018-07-15T22:09:58.139Z,17.90
2018-07-15T22:12:26.329Z,17.82
2018-07-15T22:14:54.547Z,17.80
2018-07-15T22:17:23.043Z,17.77
2018-07-15T22:19:51.231Z,17.86
2018-07-15T22:22:19.404Z,17.76
2018-07-15T22:24:47.597Z,17.77
2018-07-15T22:27:15.784Z,17.79
2018-07-15T22:29:44.079Z,17.88
2018-07-15T22:32:12.262Z,17.83
2018-07-15T22:34:40.447Z,17.79
2018-07-15T22:37:08.650Z,17.83
2018-07-15T22:39:36.837Z,17.81
2018-07-15T22:42:05.146Z,17.75
2018-07-15T22:44:33.371Z,17.74
2018-07-15T22:47:01.698Z,17.70
2018-07-15T22:49:29.970Z,17.67
2018-07-15T22:51:58.196Z,17.61
2018-07-15T22:54:26.422Z,17.60
2018-07-15T22:56:54.614Z,17.58
2018-07-15T22:59:22.797Z,17.61
2018-07-15T23:01:50.997Z,17.56
2018-07-15T23:04:31.974Z,17.52
2018-07-15T23:07:00.194Z,17.55
2018-07-15T23:09:28.392Z,17.52
2018-07-15T23:11:56.638Z,17.57
2018-07-15T23:14:24.830Z,17.54
2018-07-15T23:16:53.046Z,17.46
2018-07-15T23:19:21.233Z,17.39
2018-07-15T23:21:49.500Z,17.32
2018-07-15T23:24:17.677Z,17.28
2018-07-15T23:26:45.949Z,17.21
2018-07-15T23:29:14.143Z,17.15
2018-07-15T23:31:42.319Z,17.15
2018-07-15T23:34:10.534Z,17.12
2018-07-15T23:36:38.733Z,17.17
2018-07-15T23:39:06.958Z,17.14
2018-07-15T23:41:35.144Z,17.08
2018-07-15T23:44:03.364Z,17.00
2018-07-15T23:46:31.546Z,17.03
2018-07-15T23:48:59.722Z,17.10
2018-07-15T23:51:27.916Z,17.14
2018-07-15T23:53:56.089Z,17.11
2018-07-15T23:56:24.276Z,17.13
2018-07-15T23:58:52.485Z,17.08
